sensor_id;sensor_type;location;lat;lon;timestamp;P1;durP1;ratioP1;P2;durP2;ratioP2
1885;SDS011;943;51.568;6.998;2022-09-12T00:01:24;62.23;;;33.93;;
1885;SDS011;943;51.568;6.998;2022-09-12T00:03:54;59.60;;;32.57;;
1885;SDS011;943;51.568;6.998;2022-09-12T00:06:28;57.73;;;31.47;;
1885;SDS011;943;51.568;6.998;2022-09-12T00:09:04;57.03;;;30.30;;
1885;SDS011;943;51.568;6.998;2022-09-12T00:11:39;55.03;;;32.50;;
1885;SDS011;943;51.568;6.998;2022-09-12T00:14:13;60.70;;;30.07;;
1885;SDS011;943;51.568;6.998;2022-09-12T00:16:45;52.47;;;28.87;;
1885;SDS011;943;51.568;6.998;2022-09-12T00:19:12;60.20;;;30.77;;
1885;SDS011;943;51.568;6.998;2022-09-12T00:21:40;61.07;;;32.97;;
1885;SDS011;943;51.568;6.998;2022-09-12T00:24:09;57.17;;;32.03;;
1885;SDS011;943;51.568;6.998;2022-09-12T00:26:37;56.07;;;30.13;;
1885;SDS011;943;51.568;6.998;2022-09-12T00:29:05;64.90;;;32.10;;
1885;SDS011;943;51.568;6.998;2022-09-12T00:31:33;56.00;;;30.50;;
1885;SDS011;943;51.568;6.998;2022-09-12T00:34:01;47.87;;;28.40;;
1885;SDS011;943;51.568;6.998;2022-09-12T00:36:29;54.00;;;30.57;;
1885;SDS011;943;51.568;6.998;2022-09-12T00:38:57;62.37;;;30.63;;
1885;SDS011;943;51.568;6.998;2022-09-12T00:41:26;50.07;;;29.60;;
1885;SDS011;943;51.568;6.998;2022-09-12T00:46:46;63.10;;;33.00;;
1885;SDS011;943;51.568;6.998;2022-09-12T00:52:41;66.30;;;33.17;;
1885;SDS011;943;51.568;6.998;2022-09-12T00:55:44;66.23;;;31.23;;
1885;SDS011;943;51.568;6.998;2022-09-12T00:58:21;66.63;;;32.43;;
1885;SDS011;943;51.568;6.998;2022-09-12T01:00:57;57.50;;;33.10;;
1885;SDS011;943;51.568;6.998;2022-09-12T01:03:25;63.07;;;30.60;;
1885;SDS011;943;51.568;6.998;2022-09-12T01:09:07;58.70;;;29.07;;
1885;SDS011;943;51.568;6.998;2022-09-12T01:11:43;64.20;;;29.80;;
1885;SDS011;943;51.568;6.998;2022-09-12T01:14:14;53.00;;;29.33;;
1885;SDS011;943;51.568;6.998;2022-09-12T01:16:45;58.73;;;31.20;;
1885;SDS011;943;51.568;6.998;2022-09-12T01:39:02;59.93;;;31.87;;
1885;SDS011;943;51.568;6.998;2022-09-12T01:42:35;64.80;;;32.63;;
1885;SDS011;943;51.568;6.998;2022-09-12T01:45:37;64.93;;;31.53;;
1885;SDS011;943;51.568;6.998;2022-09-12T01:48:23;67.23;;;31.47;;
1885;SDS011;943;51.568;6.998;2022-09-12T01:54:08;67.43;;;32.50;;
1885;SDS011;943;51.568;6.998;2022-09-12T01:57:07;75.33;;;31.33;;
1885;SDS011;943;51.568;6.998;2022-09-12T01:59:55;56.40;;;30.60;;
1885;SDS011;943;51.568;6.998;2022-09-12T02:05:46;68.00;;;32.53;;
1885;SDS011;943;51.568;6.998;2022-09-12T02:08:54;58.57;;;29.53;;
1885;SDS011;943;51.568;6.998;2022-09-12T02:11:34;63.30;;;30.07;;
1885;SDS011;943;51.568;6.998;2022-09-12T02:14:20;62.27;;;31.83;;
1885;SDS011;943;51.568;6.998;2022-09-12T02:16:58;62.27;;;29.60;;
1885;SDS011;943;51.568;6.998;2022-09-12T02:19:50;52.50;;;30.33;;
1885;SDS011;943;51.568;6.998;2022-09-12T02:23:14;58.50;;;27.93;;
1885;SDS011;943;51.568;6.998;2022-09-12T02:25:55;70.80;;;33.80;;
1885;SDS011;943;51.568;6.998;2022-09-12T02:28:40;68.43;;;32.30;;
1885;SDS011;943;51.568;6.998;2022-09-12T02:31:16;72.53;;;32.80;;
1885;SDS011;943;51.568;6.998;2022-09-12T02:40:51;60.13;;;30.23;;
1885;SDS011;943;51.568;6.998;2022-09-12T02:43:20;54.03;;;28.63;;
1885;SDS011;943;51.568;6.998;2022-09-12T02:45:47;73.90;;;33.77;;
1885;SDS011;943;51.568;6.998;2022-09-12T02:48:26;68.53;;;32.10;;
1885;SDS011;943;51.568;6.998;2022-09-12T02:51:02;73.87;;;31.87;;
1885;SDS011;943;51.568;6.998;2022-09-12T02:53:31;62.50;;;31.80;;
1885;SDS011;943;51.568;6.998;2022-09-12T02:55:59;66.07;;;30.43;;
1885;SDS011;943;51.568;6.998;2022-09-12T02:58:32;71.97;;;32.50;;
1885;SDS011;943;51.568;6.998;2022-09-12T03:04:36;58.80;;;28.47;;
1885;SDS011;943;51.568;6.998;2022-09-12T03:19:09;60.97;;;30.30;;
1885;SDS011;943;51.568;6.998;2022-09-12T03:25:48;57.77;;;27.00;;
1885;SDS011;943;51.568;6.998;2022-09-12T03:28:36;66.60;;;31.13;;
1885;SDS011;943;51.568;6.998;2022-09-12T03:31:14;65.37;;;31.60;;
1885;SDS011;943;51.568;6.998;2022-09-12T03:33:55;70.50;;;32.73;;
1885;SDS011;943;51.568;6.998;2022-09-12T03:36:26;71.50;;;33.30;;
1885;SDS011;943;51.568;6.998;2022-09-12T03:38:56;67.03;;;31.83;;
1885;SDS011;943;51.568;6.998;2022-09-12T03:41:23;67.10;;;31.60;;
1885;SDS011;943;51.568;6.998;2022-09-12T03:43:51;70.57;;;32.80;;
1885;SDS011;943;51.568;6.998;2022-09-12T03:46:19;74.13;;;31.87;;
1885;SDS011;943;51.568;6.998;2022-09-12T03:48:46;75.97;;;31.43;;
1885;SDS011;943;51.568;6.998;2022-09-12T03:51:16;81.73;;;33.53;;
1885;SDS011;943;51.568;6.998;2022-09-12T03:53:43;78.23;;;33.07;;
1885;SDS011;943;51.568;6.998;2022-09-12T03:56:12;67.87;;;32.20;;
1885;SDS011;943;51.568;6.998;2022-09-12T03:58:40;62.97;;;30.07;;
1885;SDS011;943;51.568;6.998;2022-09-12T04:01:12;60.60;;;31.27;;
1885;SDS011;943;51.568;6.998;2022-09-12T04:03:46;64.70;;;31.87;;
1885;SDS011;943;51.568;6.998;2022-09-12T04:06:18;68.13;;;31.97;;
1885;SDS011;943;51.568;6.998;2022-09-12T04:08:49;62.40;;;28.37;;
1885;SDS011;943;51.568;6.998;2022-09-12T04:11:21;72.70;;;34.00;;
1885;SDS011;943;51.568;6.998;2022-09-12T04:13:50;71.90;;;32.00;;
1885;SDS011;943;51.568;6.998;2022-09-12T04:16:18;58.73;;;28.07;;
1885;SDS011;943;51.568;6.998;2022-09-12T04:18:46;71.93;;;30.53;;
1885;SDS011;943;51.568;6.998;2022-09-12T04:21:15;66.87;;;29.67;;
1885;SDS011;943;51.568;6.998;2022-09-12T04:23:47;71.03;;;32.40;;
1885;SDS011;943;51.568;6.998;2022-09-12T04:26:15;80.37;;;30.40;;
1885;SDS011;943;51.568;6.998;2022-09-12T04:28:45;77.53;;;29.40;;
1885;SDS011;943;51.568;6.998;2022-09-12T04:31:19;62.87;;;30.23;;
1885;SDS011;943;51.568;6.998;2022-09-12T04:33:57;79.27;;;34.07;;
1885;SDS011;943;51.568;6.998;2022-09-12T04:36:27;82.63;;;32.90;;
1885;SDS011;943;51.568;6.998;2022-09-12T04:38:56;72.00;;;30.33;;
1885;SDS011;943;51.568;6.998;2022-09-12T04:41:28;73.47;;;30.00;;
1885;SDS011;943;51.568;6.998;2022-09-12T04:44:03;69.33;;;30.70;;
1885;SDS011;943;51.568;6.998;2022-09-12T04:46:40;86.90;;;32.47;;
1885;SDS011;943;51.568;6.998;2022-09-12T04:49:13;75.63;;;29.50;;
1885;SDS011;943;51.568;6.998;2022-09-12T04:51:42;75.13;;;31.50;;
1885;SDS011;943;51.568;6.998;2022-09-12T04:54:15;87.00;;;32.10;;
1885;SDS011;943;51.568;6.998;2022-09-12T04:56:47;72.33;;;31.43;;
1885;SDS011;943;51.568;6.998;2022-09-12T04:59:18;80.60;;;31.80;;
1885;SDS011;943;51.568;6.998;2022-09-12T05:01:48;79.10;;;30.70;;
1885;SDS011;943;51.568;6.998;2022-09-12T05:04:16;87.30;;;32.10;;
1885;SDS011;943;51.568;6.998;2022-09-12T05:06:44;87.00;;;33.17;;
1885;SDS011;943;51.568;6.998;2022-09-12T05:09:12;83.03;;;32.03;;
1885;SDS011;943;51.568;6.998;2022-09-12T05:11:42;77.70;;;32.73;;
1885;SDS011;943;51.568;6.998;2022-09-12T05:14:29;88.83;;;32.00;;
1885;SDS011;943;51.568;6.998;2022-09-12T05:16:59;59.80;;;26.03;;
1885;SDS011;943;51.568;6.998;2022-09-12T05:19:29;89.00;;;33.53;;
1885;SDS011;943;51.568;6.998;2022-09-12T05:21:58;83.70;;;32.73;;
1885;SDS011;943;51.568;6.998;2022-09-12T05:24:26;78.33;;;30.90;;
1885;SDS011;943;51.568;6.998;2022-09-12T05:26:54;72.03;;;30.37;;
1885;SDS011;943;51.568;6.998;2022-09-12T05:29:22;65.83;;;27.63;;
1885;SDS011;943;51.568;6.998;2022-09-12T05:31:51;60.80;;;28.70;;
1885;SDS011;943;51.568;6.998;2022-09-12T05:34:19;85.03;;;32.93;;
1885;SDS011;943;51.568;6.998;2022-09-12T05:36:47;74.57;;;31.07;;
1885;SDS011;943;51.568;6.998;2022-09-12T05:39:15;64.43;;;30.10;;
1885;SDS011;943;51.568;6.998;2022-09-12T05:41:44;66.77;;;28.90;;
1885;SDS011;943;51.568;6.998;2022-09-12T05:44:11;78.30;;;32.20;;
1885;SDS011;943;51.568;6.998;2022-09-12T05:46:51;63.07;;;27.10;;
1885;SDS011;943;51.568;6.998;2022-09-12T05:49:19;66.53;;;30.97;;
1885;SDS011;943;51.568;6.998;2022-09-12T05:51:49;67.57;;;32.23;;
1885;SDS011;943;51.568;6.998;2022-09-12T05:54:17;58.93;;;27.43;;
1885;SDS011;943;51.568;6.998;2022-09-12T05:56:47;51.60;;;27.73;;
1885;SDS011;943;51.568;6.998;2022-09-12T05:59:16;59.17;;;29.80;;
1885;SDS011;943;51.568;6.998;2022-09-12T06:01:47;48.50;;;26.97;;
1885;SDS011;943;51.568;6.998;2022-09-12T06:04:15;49.30;;;28.00;;
1885;SDS011;943;51.568;6.998;2022-09-12T06:06:43;43.33;;;25.07;;
1885;SDS011;943;51.568;6.998;2022-09-12T06:09:13;50.47;;;25.70;;
1885;SDS011;943;51.568;6.998;2022-09-12T06:11:44;44.53;;;23.70;;
1885;SDS011;943;51.568;6.998;2022-09-12T06:14:13;47.67;;;25.40;;
1885;SDS011;943;51.568;6.998;2022-09-12T06:16:43;42.80;;;23.80;;
1885;SDS011;943;51.568;6.998;2022-09-12T06:19:17;43.53;;;24.90;;
1885;SDS011;943;51.568;6.998;2022-09-12T06:21:53;38.13;;;23.00;;
1885;SDS011;943;51.568;6.998;2022-09-12T06:24:21;41.90;;;23.90;;
1885;SDS011;943;51.568;6.998;2022-09-12T06:26:49;33.60;;;21.47;;
1885;SDS011;943;51.568;6.998;2022-09-12T06:29:20;33.60;;;20.90;;
1885;SDS011;943;51.568;6.998;2022-09-12T06:31:48;25.60;;;18.63;;
1885;SDS011;943;51.568;6.998;2022-09-12T06:34:15;28.77;;;19.97;;
1885;SDS011;943;51.568;6.998;2022-09-12T06:36:44;28.40;;;18.50;;
1885;SDS011;943;51.568;6.998;2022-09-12T06:39:15;25.03;;;18.83;;
1885;SDS011;943;51.568;6.998;2022-09-12T06:41:48;26.07;;;19.07;;
1885;SDS011;943;51.568;6.998;2022-09-12T06:44:31;24.97;;;18.77;;
1885;SDS011;943;51.568;6.998;2022-09-12T06:46:58;21.47;;;16.33;;
1885;SDS011;943;51.568;6.998;2022-09-12T06:49:26;19.73;;;15.10;;
1885;SDS011;943;51.568;6.998;2022-09-12T06:51:54;23.43;;;16.67;;
1885;SDS011;943;51.568;6.998;2022-09-12T06:54:21;20.27;;;16.30;;
1885;SDS011;943;51.568;6.998;2022-09-12T06:56:51;18.87;;;15.10;;
1885;SDS011;943;51.568;6.998;2022-09-12T06:59:18;19.70;;;13.00;;
1885;SDS011;943;51.568;6.998;2022-09-12T07:01:46;20.80;;;12.90;;
1885;SDS011;943;51.568;6.998;2022-09-12T07:04:14;19.20;;;13.57;;
1885;SDS011;943;51.568;6.998;2022-09-12T07:06:44;17.23;;;13.27;;
1885;SDS011;943;51.568;6.998;2022-09-12T07:09:12;14.43;;;11.77;;
1885;SDS011;943;51.568;6.998;2022-09-12T07:11:44;18.10;;;13.50;;
1885;SDS011;943;51.568;6.998;2022-09-12T07:14:13;12.10;;;10.80;;
1885;SDS011;943;51.568;6.998;2022-09-12T07:16:41;16.00;;;12.30;;
1885;SDS011;943;51.568;6.998;2022-09-12T07:19:10;19.63;;;13.43;;
1885;SDS011;943;51.568;6.998;2022-09-12T07:21:38;16.20;;;11.80;;
1885;SDS011;943;51.568;6.998;2022-09-12T07:24:07;13.60;;;11.77;;
1885;SDS011;943;51.568;6.998;2022-09-12T07:26:37;15.80;;;13.10;;
1885;SDS011;943;51.568;6.998;2022-09-12T07:29:11;17.17;;;13.50;;
1885;SDS011;943;51.568;6.998;2022-09-12T07:32:03;19.10;;;11.93;;
1885;SDS011;943;51.568;6.998;2022-09-12T07:34:33;17.43;;;12.40;;
1885;SDS011;943;51.568;6.998;2022-09-12T07:37:01;16.50;;;12.70;;
1885;SDS011;943;51.568;6.998;2022-09-12T07:39:29;16.67;;;11.90;;
1885;SDS011;943;51.568;6.998;2022-09-12T07:41:57;14.90;;;11.20;;
1885;SDS011;943;51.568;6.998;2022-09-12T07:44:25;16.20;;;12.30;;
1885;SDS011;943;51.568;6.998;2022-09-12T07:46:54;17.20;;;11.97;;
1885;SDS011;943;51.568;6.998;2022-09-12T07:49:21;16.03;;;11.77;;
1885;SDS011;943;51.568;6.998;2022-09-12T07:51:49;17.27;;;12.17;;
1885;SDS011;943;51.568;6.998;2022-09-12T07:54:17;18.33;;;12.00;;
1885;SDS011;943;51.568;6.998;2022-09-12T07:56:45;16.37;;;12.40;;
1885;SDS011;943;51.568;6.998;2022-09-12T07:59:12;19.87;;;13.40;;
1885;SDS011;943;51.568;6.998;2022-09-12T08:02:00;16.20;;;13.07;;
1885;SDS011;943;51.568;6.998;2022-09-12T08:04:29;14.70;;;11.53;;
1885;SDS011;943;51.568;6.998;2022-09-12T08:06:56;14.40;;;12.00;;
1885;SDS011;943;51.568;6.998;2022-09-12T08:09:24;16.20;;;11.97;;
1885;SDS011;943;51.568;6.998;2022-09-12T08:11:52;15.57;;;12.50;;
1885;SDS011;943;51.568;6.998;2022-09-12T08:14:19;17.23;;;13.63;;
1885;SDS011;943;51.568;6.998;2022-09-12T08:16:47;14.47;;;12.07;;
1885;SDS011;943;51.568;6.998;2022-09-12T08:19:14;19.00;;;12.33;;
1885;SDS011;943;51.568;6.998;2022-09-12T08:21:42;17.50;;;13.07;;
1885;SDS011;943;51.568;6.998;2022-09-12T08:24:10;18.57;;;13.40;;
1885;SDS011;943;51.568;6.998;2022-09-12T08:26:38;17.03;;;13.10;;
1885;SDS011;943;51.568;6.998;2022-09-12T08:29:06;15.07;;;13.27;;
1885;SDS011;943;51.568;6.998;2022-09-12T08:31:34;18.53;;;12.83;;
1885;SDS011;943;51.568;6.998;2022-09-12T08:34:03;19.00;;;12.90;;
1885;SDS011;943;51.568;6.998;2022-09-12T08:36:32;15.93;;;13.07;;
1885;SDS011;943;51.568;6.998;2022-09-12T08:39:02;18.27;;;13.27;;
1885;SDS011;943;51.568;6.998;2022-09-12T08:41:43;16.13;;;12.57;;
1885;SDS011;943;51.568;6.998;2022-09-12T08:47:39;13.50;;;11.87;;
1885;SDS011;943;51.568;6.998;2022-09-12T08:55:42;17.10;;;12.80;;
1885;SDS011;943;51.568;6.998;2022-09-12T08:58:24;21.20;;;13.53;;
1885;SDS011;943;51.568;6.998;2022-09-12T09:03:58;13.73;;;10.70;;
1885;SDS011;943;51.568;6.998;2022-09-12T09:10:51;16.80;;;11.77;;
1885;SDS011;943;51.568;6.998;2022-09-12T09:13:27;19.93;;;12.27;;
1885;SDS011;943;51.568;6.998;2022-09-12T09:17:01;18.57;;;13.13;;
1885;SDS011;943;51.568;6.998;2022-09-12T09:19:37;17.30;;;12.50;;
1885;SDS011;943;51.568;6.998;2022-09-12T09:22:24;13.17;;;10.77;;
1885;SDS011;943;51.568;6.998;2022-09-12T09:25:27;17.60;;;12.97;;
1885;SDS011;943;51.568;6.998;2022-09-12T09:31:36;13.90;;;11.53;;
1885;SDS011;943;51.568;6.998;2022-09-12T09:34:19;15.33;;;10.80;;
1885;SDS011;943;51.568;6.998;2022-09-12T09:37:06;17.30;;;11.43;;
1885;SDS011;943;51.568;6.998;2022-09-12T09:45:52;12.23;;;10.80;;
1885;SDS011;943;51.568;6.998;2022-09-12T09:50:58;13.23;;;11.10;;
1885;SDS011;943;51.568;6.998;2022-09-12T09:53:55;17.73;;;11.60;;
1885;SDS011;943;51.568;6.998;2022-09-12T10:00:25;16.07;;;13.27;;
1885;SDS011;943;51.568;6.998;2022-09-12T10:05:50;13.03;;;10.10;;
1885;SDS011;943;51.568;6.998;2022-09-12T10:08:48;12.63;;;8.20;;
1885;SDS011;943;51.568;6.998;2022-09-12T10:11:20;11.27;;;9.00;;
1885;SDS011;943;51.568;6.998;2022-09-12T10:13:53;11.27;;;8.97;;
1885;SDS011;943;51.568;6.998;2022-09-12T10:16:29;15.30;;;9.87;;
1885;SDS011;943;51.568;6.998;2022-09-12T10:19:20;10.80;;;8.57;;
1885;SDS011;943;51.568;6.998;2022-09-12T10:22:05;10.53;;;8.30;;
1885;SDS011;943;51.568;6.998;2022-09-12T10:24:47;9.67;;;7.03;;
1885;SDS011;943;51.568;6.998;2022-09-12T10:27:25;9.80;;;6.50;;
1885;SDS011;943;51.568;6.998;2022-09-12T10:32:48;11.53;;;7.10;;
1885;SDS011;943;51.568;6.998;2022-09-12T10:38:00;9.00;;;5.77;;
1885;SDS011;943;51.568;6.998;2022-09-12T10:40:58;8.43;;;6.50;;
1885;SDS011;943;51.568;6.998;2022-09-12T10:43:36;8.60;;;6.30;;
1885;SDS011;943;51.568;6.998;2022-09-12T10:48:44;7.37;;;5.67;;
1885;SDS011;943;51.568;6.998;2022-09-12T10:53:50;8.93;;;4.83;;
1885;SDS011;943;51.568;6.998;2022-09-12T10:56:33;7.03;;;3.97;;
1885;SDS011;943;51.568;6.998;2022-09-12T11:08:39;8.70;;;4.37;;
1885;SDS011;943;51.568;6.998;2022-09-12T11:11:52;4.73;;;4.20;;
1885;SDS011;943;51.568;6.998;2022-09-12T11:22:22;6.07;;;3.20;;
1885;SDS011;943;51.568;6.998;2022-09-12T11:28:24;5.00;;;3.90;;
1885;SDS011;943;51.568;6.998;2022-09-12T11:31:46;5.77;;;4.00;;
1885;SDS011;943;51.568;6.998;2022-09-12T11:41:05;5.23;;;3.90;;
1885;SDS011;943;51.568;6.998;2022-09-12T11:47:09;4.13;;;3.40;;
1885;SDS011;943;51.568;6.998;2022-09-12T11:49:41;6.37;;;3.87;;
1885;SDS011;943;51.568;6.998;2022-09-12T11:52:20;5.70;;;3.57;;
1885;SDS011;943;51.568;6.998;2022-09-12T11:57:44;3.43;;;3.10;;
1885;SDS011;943;51.568;6.998;2022-09-12T12:00:26;11.67;;;2.67;;
1885;SDS011;943;51.568;6.998;2022-09-12T12:03:24;4.73;;;3.50;;
1885;SDS011;943;51.568;6.998;2022-09-12T12:06:15;3.23;;;2.83;;
1885;SDS011;943;51.568;6.998;2022-09-12T12:08:59;3.43;;;2.90;;
1885;SDS011;943;51.568;6.998;2022-09-12T12:11:34;3.33;;;2.67;;
1885;SDS011;943;51.568;6.998;2022-09-12T12:14:21;3.77;;;3.20;;
1885;SDS011;943;51.568;6.998;2022-09-12T12:17:14;4.10;;;3.20;;
1885;SDS011;943;51.568;6.998;2022-09-12T12:19:47;9.00;;;4.23;;
1885;SDS011;943;51.568;6.998;2022-09-12T12:22:34;3.30;;;2.70;;
1885;SDS011;943;51.568;6.998;2022-09-12T12:25:05;5.53;;;3.07;;
1885;SDS011;943;51.568;6.998;2022-09-12T12:28:02;3.20;;;2.77;;
1885;SDS011;943;51.568;6.998;2022-09-12T12:38:36;3.67;;;3.00;;
1885;SDS011;943;51.568;6.998;2022-09-12T12:43:43;3.90;;;2.80;;
1885;SDS011;943;51.568;6.998;2022-09-12T12:46:15;8.03;;;2.70;;
1885;SDS011;943;51.568;6.998;2022-09-12T12:48:49;4.10;;;2.67;;
1885;SDS011;943;51.568;6.998;2022-09-12T12:51:54;5.07;;;3.30;;
1885;SDS011;943;51.568;6.998;2022-09-12T12:54:31;3.33;;;2.77;;
1885;SDS011;943;51.568;6.998;2022-09-12T12:57:29;5.23;;;3.20;;
1885;SDS011;943;51.568;6.998;2022-09-12T13:05:43;3.50;;;3.00;;
1885;SDS011;943;51.568;6.998;2022-09-12T13:08:34;6.60;;;3.13;;
1885;SDS011;943;51.568;6.998;2022-09-12T13:11:15;3.47;;;3.00;;
1885;SDS011;943;51.568;6.998;2022-09-12T13:15:00;5.27;;;3.50;;
1885;SDS011;943;51.568;6.998;2022-09-12T13:17:57;4.83;;;3.30;;
1885;SDS011;943;51.568;6.998;2022-09-12T13:20:46;3.90;;;3.17;;
1885;SDS011;943;51.568;6.998;2022-09-12T13:23:37;3.30;;;3.00;;
1885;SDS011;943;51.568;6.998;2022-09-12T13:26:10;2.70;;;2.40;;
1885;SDS011;943;51.568;6.998;2022-09-12T13:31:46;4.50;;;3.30;;
1885;SDS011;943;51.568;6.998;2022-09-12T13:34:30;3.43;;;2.60;;
1885;SDS011;943;51.568;6.998;2022-09-12T13:43:44;3.70;;;2.90;;
1885;SDS011;943;51.568;6.998;2022-09-12T13:46:25;4.03;;;2.50;;
1885;SDS011;943;51.568;6.998;2022-09-12T13:49:00;4.03;;;3.00;;
1885;SDS011;943;51.568;6.998;2022-09-12T13:52:02;3.60;;;2.80;;
1885;SDS011;943;51.568;6.998;2022-09-12T13:54:49;5.30;;;2.73;;
1885;SDS011;943;51.568;6.998;2022-09-12T13:57:29;6.30;;;2.97;;
1885;SDS011;943;51.568;6.998;2022-09-12T14:00:11;3.20;;;2.70;;
1885;SDS011;943;51.568;6.998;2022-09-12T14:02:46;3.77;;;2.80;;
1885;SDS011;943;51.568;6.998;2022-09-12T14:05:23;3.80;;;2.63;;
1885;SDS011;943;51.568;6.998;2022-09-12T14:07:54;3.17;;;2.40;;
1885;SDS011;943;51.568;6.998;2022-09-12T14:10:34;4.00;;;2.10;;
1885;SDS011;943;51.568;6.998;2022-09-12T14:13:23;6.03;;;3.10;;
1885;SDS011;943;51.568;6.998;2022-09-12T14:15:53;3.40;;;2.67;;
1885;SDS011;943;51.568;6.998;2022-09-12T14:18:26;3.53;;;2.60;;
1885;SDS011;943;51.568;6.998;2022-09-12T14:21:11;4.33;;;2.70;;
1885;SDS011;943;51.568;6.998;2022-09-12T14:23:52;5.33;;;3.60;;
1885;SDS011;943;51.568;6.998;2022-09-12T14:26:20;3.60;;;3.00;;
1885;SDS011;943;51.568;6.998;2022-09-12T14:28:49;4.10;;;2.73;;
1885;SDS011;943;51.568;6.998;2022-09-12T14:31:21;4.00;;;2.70;;
1885;SDS011;943;51.568;6.998;2022-09-12T14:34:13;3.27;;;2.67;;
1885;SDS011;943;51.568;6.998;2022-09-12T14:36:48;5.53;;;2.93;;
1885;SDS011;943;51.568;6.998;2022-09-12T14:39:31;4.10;;;2.77;;
1885;SDS011;943;51.568;6.998;2022-09-12T14:42:15;2.90;;;2.40;;
1885;SDS011;943;51.568;6.998;2022-09-12T14:44:56;5.17;;;2.93;;
1885;SDS011;943;51.568;6.998;2022-09-12T14:47:39;3.83;;;2.27;;
1885;SDS011;943;51.568;6.998;2022-09-12T14:50:20;4.50;;;3.07;;
1885;SDS011;943;51.568;6.998;2022-09-12T14:55:49;13.83;;;3.70;;
1885;SDS011;943;51.568;6.998;2022-09-12T14:58:40;4.00;;;3.47;;
1885;SDS011;943;51.568;6.998;2022-09-12T15:09:02;3.30;;;3.00;;
1885;SDS011;943;51.568;6.998;2022-09-12T15:11:38;6.43;;;2.87;;
1885;SDS011;943;51.568;6.998;2022-09-12T15:14:11;2.93;;;2.60;;
1885;SDS011;943;51.568;6.998;2022-09-12T15:16:40;3.57;;;3.10;;
1885;SDS011;943;51.568;6.998;2022-09-12T15:19:08;5.43;;;2.70;;
1885;SDS011;943;51.568;6.998;2022-09-12T15:21:36;4.00;;;3.13;;
1885;SDS011;943;51.568;6.998;2022-09-12T15:24:04;4.70;;;3.07;;
1885;SDS011;943;51.568;6.998;2022-09-12T15:26:32;3.47;;;2.77;;
1885;SDS011;943;51.568;6.998;2022-09-12T15:28:59;4.40;;;3.03;;
1885;SDS011;943;51.568;6.998;2022-09-12T15:31:29;7.07;;;3.33;;
1885;SDS011;943;51.568;6.998;2022-09-12T15:33:59;4.23;;;2.70;;
1885;SDS011;943;51.568;6.998;2022-09-12T15:36:28;4.20;;;3.07;;
1885;SDS011;943;51.568;6.998;2022-09-12T15:38:56;4.13;;;3.40;;
1885;SDS011;943;51.568;6.998;2022-09-12T15:44:08;3.33;;;2.73;;
1885;SDS011;943;51.568;6.998;2022-09-12T15:46:38;3.43;;;2.90;;
1885;SDS011;943;51.568;6.998;2022-09-12T15:49:06;3.10;;;2.67;;
1885;SDS011;943;51.568;6.998;2022-09-12T15:51:34;3.63;;;2.60;;
1885;SDS011;943;51.568;6.998;2022-09-12T15:54:02;4.27;;;3.20;;
1885;SDS011;943;51.568;6.998;2022-09-12T15:56:30;3.40;;;2.73;;
1885;SDS011;943;51.568;6.998;2022-09-12T15:58:58;7.27;;;3.27;;
1885;SDS011;943;51.568;6.998;2022-09-12T16:01:26;3.57;;;2.77;;
1885;SDS011;943;51.568;6.998;2022-09-12T16:03:55;3.53;;;2.90;;
1885;SDS011;943;51.568;6.998;2022-09-12T16:06:24;3.63;;;3.13;;
1885;SDS011;943;51.568;6.998;2022-09-12T16:08:53;3.50;;;3.13;;
1885;SDS011;943;51.568;6.998;2022-09-12T16:11:22;4.63;;;2.97;;
1885;SDS011;943;51.568;6.998;2022-09-12T16:13:52;3.77;;;2.90;;
1885;SDS011;943;51.568;6.998;2022-09-12T16:16:22;6.43;;;3.03;;
1885;SDS011;943;51.568;6.998;2022-09-12T16:18:56;4.53;;;3.73;;
1885;SDS011;943;51.568;6.998;2022-09-12T16:21:26;6.10;;;2.87;;
1885;SDS011;943;51.568;6.998;2022-09-12T16:23:54;5.67;;;3.23;;
1885;SDS011;943;51.568;6.998;2022-09-12T16:26:22;4.00;;;3.33;;
1885;SDS011;943;51.568;6.998;2022-09-12T16:28:56;5.80;;;3.53;;
1885;SDS011;943;51.568;6.998;2022-09-12T16:31:25;3.70;;;2.80;;
1885;SDS011;943;51.568;6.998;2022-09-12T16:33:54;6.93;;;3.00;;
1885;SDS011;943;51.568;6.998;2022-09-12T16:36:25;4.27;;;3.17;;
1885;SDS011;943;51.568;6.998;2022-09-12T16:38:53;2.73;;;2.20;;
1885;SDS011;943;51.568;6.998;2022-09-12T16:41:21;3.63;;;2.83;;
1885;SDS011;943;51.568;6.998;2022-09-12T16:43:51;4.40;;;2.50;;
1885;SDS011;943;51.568;6.998;2022-09-12T16:46:24;4.50;;;3.00;;
1885;SDS011;943;51.568;6.998;2022-09-12T16:48:57;3.80;;;2.93;;
1885;SDS011;943;51.568;6.998;2022-09-12T16:51:26;3.70;;;2.90;;
1885;SDS011;943;51.568;6.998;2022-09-12T16:54:01;4.77;;;2.87;;
1885;SDS011;943;51.568;6.998;2022-09-12T16:56:29;3.70;;;2.67;;
1885;SDS011;943;51.568;6.998;2022-09-12T16:58:58;3.13;;;2.80;;
1885;SDS011;943;51.568;6.998;2022-09-12T17:01:26;6.00;;;2.40;;
1885;SDS011;943;51.568;6.998;2022-09-12T17:03:54;3.33;;;2.63;;
1885;SDS011;943;51.568;6.998;2022-09-12T17:06:24;3.87;;;2.83;;
1885;SDS011;943;51.568;6.998;2022-09-12T17:08:56;5.00;;;3.40;;
1885;SDS011;943;51.568;6.998;2022-09-12T17:11:33;3.90;;;3.20;;
1885;SDS011;943;51.568;6.998;2022-09-12T17:14:05;4.80;;;2.73;;
1885;SDS011;943;51.568;6.998;2022-09-12T17:16:35;3.77;;;2.83;;
1885;SDS011;943;51.568;6.998;2022-09-12T17:19:19;3.40;;;2.90;;
1885;SDS011;943;51.568;6.998;2022-09-12T17:22:01;4.30;;;3.03;;
1885;SDS011;943;51.568;6.998;2022-09-12T17:24:51;3.93;;;3.03;;
1885;SDS011;943;51.568;6.998;2022-09-12T17:27:23;3.70;;;2.80;;
1885;SDS011;943;51.568;6.998;2022-09-12T17:30:00;5.10;;;3.50;;
1885;SDS011;943;51.568;6.998;2022-09-12T17:32:33;4.50;;;3.13;;
1885;SDS011;943;51.568;6.998;2022-09-12T17:35:13;4.80;;;3.23;;
1885;SDS011;943;51.568;6.998;2022-09-12T17:37:51;4.50;;;3.10;;
1885;SDS011;943;51.568;6.998;2022-09-12T17:40:24;3.87;;;3.10;;
1885;SDS011;943;51.568;6.998;2022-09-12T17:43:25;3.63;;;2.70;;
1885;SDS011;943;51.568;6.998;2022-09-12T17:45:58;4.43;;;3.27;;
1885;SDS011;943;51.568;6.998;2022-09-12T17:48:28;5.20;;;3.63;;
1885;SDS011;943;51.568;6.998;2022-09-12T17:51:09;9.20;;;3.97;;
1885;SDS011;943;51.568;6.998;2022-09-12T17:53:45;6.07;;;3.90;;
1885;SDS011;943;51.568;6.998;2022-09-12T17:56:13;4.30;;;3.50;;
1885;SDS011;943;51.568;6.998;2022-09-12T17:58:43;5.50;;;4.17;;
1885;SDS011;943;51.568;6.998;2022-09-12T18:01:13;4.60;;;3.83;;
1885;SDS011;943;51.568;6.998;2022-09-12T18:04:00;6.07;;;4.90;;
1885;SDS011;943;51.568;6.998;2022-09-12T18:06:31;5.03;;;4.17;;
1885;SDS011;943;51.568;6.998;2022-09-12T18:09:00;6.93;;;4.70;;
1885;SDS011;943;51.568;6.998;2022-09-12T18:11:32;5.33;;;4.40;;
1885;SDS011;943;51.568;6.998;2022-09-12T18:14:01;5.60;;;5.00;;
1885;SDS011;943;51.568;6.998;2022-09-12T18:16:29;8.40;;;5.57;;
1885;SDS011;943;51.568;6.998;2022-09-12T18:18:57;8.20;;;6.93;;
1885;SDS011;943;51.568;6.998;2022-09-12T18:21:27;10.97;;;7.90;;
1885;SDS011;943;51.568;6.998;2022-09-12T18:23:56;11.70;;;8.30;;
1885;SDS011;943;51.568;6.998;2022-09-12T18:26:26;13.40;;;9.53;;
1885;SDS011;943;51.568;6.998;2022-09-12T18:28:55;12.87;;;9.37;;
1885;SDS011;943;51.568;6.998;2022-09-12T18:31:25;10.27;;;8.80;;
1885;SDS011;943;51.568;6.998;2022-09-12T18:33:56;13.90;;;7.00;;
1885;SDS011;943;51.568;6.998;2022-09-12T18:36:25;9.50;;;6.73;;
1885;SDS011;943;51.568;6.998;2022-09-12T18:38:56;12.10;;;7.20;;
1885;SDS011;943;51.568;6.998;2022-09-12T18:41:25;9.77;;;7.03;;
1885;SDS011;943;51.568;6.998;2022-09-12T18:43:55;9.37;;;7.83;;
1885;SDS011;943;51.568;6.998;2022-09-12T18:46:27;10.20;;;6.37;;
1885;SDS011;943;51.568;6.998;2022-09-12T18:48:58;7.50;;;6.27;;
1885;SDS011;943;51.568;6.998;2022-09-12T18:51:28;7.73;;;6.50;;
1885;SDS011;943;51.568;6.998;2022-09-12T18:54:02;9.07;;;6.30;;
1885;SDS011;943;51.568;6.998;2022-09-12T18:56:37;8.53;;;6.43;;
1885;SDS011;943;51.568;6.998;2022-09-12T18:59:09;7.53;;;6.03;;
1885;SDS011;943;51.568;6.998;2022-09-12T19:01:40;6.90;;;6.13;;
1885;SDS011;943;51.568;6.998;2022-09-12T19:04:10;8.30;;;6.40;;